createdAt,value
2022-08-28T00:01:38.994Z,99.90
2022-08-28T00:04:12.053Z,99.90
2022-08-28T00:06:42.429Z,99.90
2022-08-28T00:09:12.790Z,99.90
2022-08-28T00:11:43.468Z,99.90
2022-08-28T00:14:16.289Z,99.90
2022-08-28T00:16:46.705Z,99.90
2022-08-28T00:19:20.031Z,99.90
2022-08-28T00:21:52.156Z,99.90
2022-08-28T00:24:22.742Z,99.90
2022-08-28T00:27:05.567Z,99.90
2022-08-28T00:29:35.874Z,99.90
2022-08-28T00:32:09.045Z,99.90
2022-08-28T00:34:42.049Z,99.90
2022-08-28T00:37:12.892Z,99.90
2022-08-28T00:39:43.460Z,99.90
2022-08-28T00:42:14.414Z,99.90
2022-08-28T00:44:44.807Z,99.90
2022-08-28T00:47:16.076Z,99.90
2022-08-28T00:49:54.061Z,99.90
2022-08-28T00:52:23.867Z,99.90
2022-08-28T00:54:59.983Z,99.90
2022-08-28T00:57:33.917Z,99.90
2022-08-28T01:00:04.713Z,99.90
2022-08-28T01:02:35.439Z,99.90
2022-08-28T01:05:10.091Z,99.90
2022-08-28T01:07:41.416Z,99.90
2022-08-28T01:10:14.408Z,99.90
2022-08-28T01:12:45.159Z,99.90
2022-08-28T01:15:18.559Z,99.90
2022-08-28T01:17:52.313Z,99.90
2022-08-28T01:20:28.483Z,99.90
2022-08-28T01:23:09.634Z,99.90
2022-08-28T01:25:43.479Z,99.90
2022-08-28T01:28:16.222Z,99.90
2022-08-28T01:30:50.320Z,99.90
2022-08-28T01:33:27.830Z,99.90
2022-08-28T01:35:59.456Z,99.90
2022-08-28T01:38:30.269Z,99.90
2022-08-28T01:41:03.227Z,99.90
2022-08-28T01:43:33.770Z,99.90
2022-08-28T01:46:08.156Z,99.90
2022-08-28T01:48:42.809Z,99.90
2022-08-28T01:51:14.643Z,99.90
2022-08-28T01:53:46.623Z,99.90
2022-08-28T01:56:20.597Z,99.90
2022-08-28T01:58:51.024Z,99.90
2022-08-28T02:01:23.914Z,99.90
2022-08-28T02:03:55.868Z,99.90
2022-08-28T02:06:26.259Z,99.90
2022-08-28T02:08:57.082Z,99.90
2022-08-28T02:11:35.818Z,99.90
2022-08-28T02:14:09.605Z,99.90
2022-08-28T02:16:40.067Z,99.90
2022-08-28T02:19:10.578Z,99.90
2022-08-28T02:21:41.193Z,99.90
2022-08-28T02:24:11.700Z,99.90
2022-08-28T02:26:44.708Z,99.90
2022-08-28T02:29:15.559Z,99.90
2022-08-28T02:31:45.973Z,99.90
2022-08-28T02:34:16.425Z,99.90
2022-08-28T02:36:47.572Z,99.90
2022-08-28T02:39:17.972Z,99.90
2022-08-28T02:41:50.912Z,99.90
2022-08-28T02:44:21.516Z,99.90
2022-08-28T02:46:51.990Z,99.90
2022-08-28T02:49:25.720Z,99.90
2022-08-28T02:52:01.873Z,99.90
2022-08-28T02:54:32.302Z,99.90
2022-08-28T02:57:05.566Z,99.90
2022-08-28T02:59:36.414Z,99.90
2022-08-28T03:02:07.743Z,99.90
2022-08-28T03:04:39.232Z,99.90
2022-08-28T03:07:13.673Z,99.90
2022-08-28T03:09:44.428Z,99.90
2022-08-28T03:12:17.410Z,99.90
2022-08-28T03:14:48.000Z,99.90
2022-08-28T03:17:18.382Z,99.90
2022-08-28T03:19:49.211Z,99.90
2022-08-28T03:22:39.768Z,99.90
2022-08-28T03:25:08.728Z,99.90
2022-08-28T03:27:41.891Z,99.90
2022-08-28T03:30:13.205Z,99.90
2022-08-28T03:32:43.670Z,99.90
2022-08-28T03:35:14.946Z,99.90
2022-08-28T03:37:49.388Z,99.90
2022-08-28T03:40:20.606Z,99.90
2022-08-28T03:42:53.846Z,99.90
2022-08-28T03:45:25.654Z,99.90
2022-08-28T03:47:57.093Z,99.90
2022-08-28T03:50:28.500Z,99.90
2022-08-28T03:52:59.806Z,99.90
2022-08-28T03:55:30.545Z,99.90
2022-08-28T03:58:03.481Z,99.90
2022-08-28T04:00:34.042Z,99.90
2022-08-28T04:03:04.670Z,99.90
2022-08-28T04:05:35.239Z,99.90
2022-08-28T04:08:06.320Z,99.90
2022-08-28T04:10:36.932Z,99.90
2022-08-28T04:13:09.884Z,99.90
2022-08-28T04:15:41.169Z,99.90
2022-08-28T04:18:12.525Z,99.90
2022-08-28T04:20:43.878Z,99.90
2022-08-28T04:23:17.250Z,99.90
2022-08-28T04:25:47.576Z,99.90
2022-08-28T04:28:20.719Z,99.90
2022-08-28T04:30:51.966Z,99.90
2022-08-28T04:33:22.398Z,99.90
2022-08-28T04:35:52.927Z,99.90
2022-08-28T04:38:23.656Z,99.90
2022-08-28T04:40:54.137Z,99.90
2022-08-28T04:43:26.990Z,99.90
2022-08-28T04:45:57.997Z,99.90
2022-08-28T04:48:28.487Z,99.90
2022-08-28T04:50:59.128Z,99.90
2022-08-28T04:53:29.716Z,99.90
2022-08-28T04:56:00.863Z,99.90
2022-08-28T04:58:34.478Z,99.90
2022-08-28T05:01:09.542Z,99.90
2022-08-28T05:03:40.065Z,99.90
2022-08-28T05:06:11.572Z,99.90
2022-08-28T05:08:41.831Z,99.90
2022-08-28T05:11:22.100Z,99.90
2022-08-28T05:14:12.797Z,99.90
2022-08-28T05:16:48.018Z,99.90
2022-08-28T05:19:19.350Z,99.90
2022-08-28T05:21:49.893Z,99.90
2022-08-28T05:24:21.449Z,99.90
2022-08-28T05:26:52.075Z,99.90
2022-08-28T05:29:25.242Z,99.90
2022-08-28T05:31:55.718Z,99.90
2022-08-28T05:34:26.256Z,99.90
2022-08-28T05:36:56.696Z,99.90
2022-08-28T05:39:26.967Z,99.90
2022-08-28T05:41:57.308Z,99.90
2022-08-28T05:44:30.257Z,99.90
2022-08-28T05:47:00.843Z,99.90
2022-08-28T05:49:31.218Z,99.90
2022-08-28T05:52:01.755Z,99.90
2022-08-28T05:54:32.258Z,99.90
2022-08-28T05:57:02.691Z,99.90
2022-08-28T05:59:36.610Z,99.90
2022-08-28T06:02:09.254Z,99.90
2022-08-28T06:04:40.667Z,99.90
2022-08-28T06:07:12.328Z,99.90
2022-08-28T06:09:42.709Z,99.90
2022-08-28T06:12:13.930Z,99.90
2022-08-28T06:14:47.435Z,99.90
2022-08-28T06:17:17.896Z,99.90
2022-08-28T06:19:53.873Z,99.90
2022-08-28T06:22:24.391Z,99.90
2022-08-28T06:24:55.037Z,99.90
2022-08-28T06:27:25.491Z,99.90
2022-08-28T06:29:58.868Z,99.90
2022-08-28T06:32:29.288Z,99.90
2022-08-28T06:34:59.535Z,99.90
2022-08-28T06:37:29.930Z,99.90
2022-08-28T06:40:00.408Z,99.90
2022-08-28T06:42:31.508Z,99.90
2022-08-28T06:45:04.471Z,99.90
2022-08-28T06:47:34.791Z,99.90
2022-08-28T06:50:05.061Z,99.90
2022-08-28T06:52:35.507Z,99.90
2022-08-28T06:55:08.872Z,99.90
2022-08-28T06:57:41.453Z,99.90
2022-08-28T07:00:15.923Z,99.90
2022-08-28T07:02:46.534Z,99.90
2022-08-28T07:05:17.348Z,99.90
2022-08-28T07:07:47.756Z,99.90
2022-08-28T07:10:18.043Z,99.90
2022-08-28T07:12:48.407Z,99.90
2022-08-28T07:15:21.827Z,99.90
2022-08-28T07:17:54.297Z,99.90
2022-08-28T07:20:25.227Z,99.90
2022-08-28T07:22:59.748Z,99.90
2022-08-28T07:25:30.085Z,99.90
2022-08-28T07:28:00.479Z,99.90
2022-08-28T07:30:33.523Z,99.90
2022-08-28T07:33:03.867Z,99.90
2022-08-28T07:35:34.224Z,99.90
2022-08-28T07:38:04.669Z,99.90
2022-08-28T07:40:35.199Z,99.90
2022-08-28T07:43:17.983Z,99.90
2022-08-28T07:45:51.152Z,99.90
2022-08-28T07:48:21.740Z,99.90
2022-08-28T07:50:52.062Z,99.90
2022-08-28T07:53:23.040Z,99.90
2022-08-28T07:55:54.108Z,99.90
2022-08-28T07:58:26.156Z,99.90
2022-08-28T08:01:01.549Z,99.90
2022-08-28T08:03:35.430Z,99.90
2022-08-28T08:06:07.618Z,99.90
2022-08-28T08:08:38.201Z,99.90
2022-08-28T08:11:11.403Z,99.90
2022-08-28T08:13:47.360Z,99.90
2022-08-28T08:16:26.151Z,99.90
2022-08-28T08:19:10.247Z,99.90
2022-08-28T08:21:40.951Z,99.90
2022-08-28T08:24:19.651Z,99.90
2022-08-28T08:26:59.664Z,99.90
2022-08-28T08:29:32.854Z,99.90
2022-08-28T08:32:07.264Z,99.90
2022-08-28T08:34:43.497Z,99.90
2022-08-28T08:37:14.141Z,99.90
2022-08-28T08:39:45.852Z,99.90
2022-08-28T08:42:25.613Z,99.90
2022-08-28T08:44:57.516Z,99.90
2022-08-28T08:47:38.470Z,99.90
2022-08-28T08:50:16.317Z,99.90
2022-08-28T08:53:00.248Z,99.90
2022-08-28T08:55:34.521Z,99.90
2022-08-28T08:58:09.505Z,99.90
2022-08-28T09:00:49.710Z,99.90
2022-08-28T09:03:26.279Z,99.90
2022-08-28T09:06:04.983Z,99.90
2022-08-28T09:08:44.619Z,99.90
2022-08-28T09:11:29.749Z,99.90
2022-08-28T09:14:05.785Z,99.90
2022-08-28T09:16:42.695Z,99.90
2022-08-28T09:19:19.378Z,99.90
2022-08-28T09:21:54.100Z,99.90
2022-08-28T09:24:28.149Z,99.90
2022-08-28T09:27:01.942Z,99.90
2022-08-28T09:29:35.365Z,99.80
2022-08-28T09:32:24.287Z,99.60
2022-08-28T09:35:09.155Z,98.60
2022-08-28T09:37:46.562Z,99.20
2022-08-28T09:40:20.188Z,99.70
2022-08-28T09:43:27.903Z,99.80
2022-08-28T09:46:03.072Z,99.60
2022-08-28T09:48:39.158Z,99.40
2022-08-28T09:51:11.905Z,99.50
2022-08-28T09:53:59.094Z,99.30
2022-08-28T09:56:33.891Z,98.90
2022-08-28T09:59:08.734Z,99.30
2022-08-28T10:01:50.009Z,99.30
2022-08-28T10:04:32.492Z,99.50
2022-08-28T10:07:09.218Z,99.30
2022-08-28T10:09:55.055Z,99.20
2022-08-28T10:12:38.439Z,99.10
2022-08-28T10:15:18.081Z,98.50
2022-08-28T10:18:02.033Z,98.40
2022-08-28T10:20:48.258Z,97.90
2022-08-28T10:23:28.532Z,98.00
2022-08-28T10:26:08.874Z,97.70
2022-08-28T10:28:50.273Z,97.80
2022-08-28T10:31:29.837Z,97.10
2022-08-28T10:34:14.044Z,96.80
2022-08-28T10:36:50.247Z,97.30
2022-08-28T10:39:34.094Z,97.00
2022-08-28T10:42:09.319Z,96.60
2022-08-28T10:44:43.944Z,96.50
2022-08-28T10:47:15.925Z,96.90
2022-08-28T10:49:50.237Z,96.70
2022-08-28T10:52:25.705Z,96.30
2022-08-28T10:55:03.500Z,96.50
2022-08-28T10:57:40.125Z,96.30
2022-08-28T11:00:15.576Z,96.20
2022-08-28T11:02:51.208Z,96.20
2022-08-28T11:05:24.616Z,96.20
2022-08-28T11:07:59.849Z,96.00
2022-08-28T11:10:53.032Z,96.20
2022-08-28T11:13:51.585Z,95.90
2022-08-28T11:16:25.668Z,96.30
2022-08-28T11:19:32.470Z,96.00
2022-08-28T11:22:07.094Z,96.10
2022-08-28T11:24:49.078Z,94.90
2022-08-28T11:27:27.942Z,95.10
2022-08-28T11:30:36.831Z,94.90
2022-08-28T11:33:12.502Z,95.10
2022-08-28T11:35:50.125Z,94.50
2022-08-28T11:38:50.373Z,94.20
2022-08-28T11:41:24.504Z,94.80
2022-08-28T11:44:17.814Z,94.60
2022-08-28T11:46:49.622Z,94.60
2022-08-28T11:49:44.367Z,94.00
2022-08-28T11:52:33.954Z,93.60
2022-08-28T11:55:16.363Z,94.00
2022-08-28T12:00:43.621Z,93.60
2022-08-28T12:03:16.637Z,93.40
2022-08-28T12:05:52.730Z,92.70
2022-08-28T12:08:53.519Z,93.10
2022-08-28T12:11:53.913Z,93.10
2022-08-28T12:15:10.570Z,92.60
2022-08-28T12:17:50.030Z,92.40
2022-08-28T12:20:33.242Z,92.90
2022-08-28T12:23:27.677Z,92.70
2022-08-28T12:26:04.926Z,92.30
2022-08-28T12:28:41.316Z,92.00
2022-08-28T12:31:51.137Z,92.50
2022-08-28T12:34:32.963Z,92.10
2022-08-28T12:37:05.139Z,91.90
2022-08-28T12:39:40.074Z,91.80
2022-08-28T12:42:20.169Z,91.60
2022-08-28T12:44:51.426Z,91.50
2022-08-28T12:47:25.747Z,91.70
2022-08-28T12:49:56.142Z,91.70
2022-08-28T12:52:28.574Z,91.50
2022-08-28T12:55:01.570Z,91.40
2022-08-28T12:57:34.000Z,91.30
2022-08-28T13:00:12.180Z,91.20
2022-08-28T13:02:50.084Z,91.00
2022-08-28T13:05:26.925Z,91.20
2022-08-28T13:07:57.517Z,90.60
2022-08-28T13:10:32.955Z,90.60
2022-08-28T13:13:06.521Z,91.00
2022-08-28T13:15:51.389Z,90.90
2022-08-28T13:18:47.652Z,90.20
2022-08-28T13:21:34.955Z,90.30
2022-08-28T13:24:40.117Z,90.40
2022-08-28T13:27:24.506Z,90.30
2022-08-28T13:30:09.023Z,90.30
2022-08-28T13:32:41.813Z,89.60
2022-08-28T13:35:30.835Z,89.20
2022-08-28T13:38:03.586Z,89.10
2022-08-28T13:43:31.876Z,88.10
2022-08-28T13:46:02.345Z,88.60
2022-08-28T13:48:32.595Z,88.90
2022-08-28T13:51:10.325Z,87.80
2022-08-28T13:53:41.659Z,87.80
2022-08-28T13:56:12.311Z,88.50
2022-08-28T13:58:47.963Z,88.20
2022-08-28T14:01:49.026Z,88.10
2022-08-28T14:04:16.750Z,88.30
2022-08-28T14:06:47.096Z,86.80
2022-08-28T14:09:18.005Z,86.80
2022-08-28T14:11:49.819Z,86.80
2022-08-28T14:14:22.815Z,86.60
2022-08-28T14:16:55.842Z,87.20
2022-08-28T14:19:26.476Z,86.60
2022-08-28T14:21:57.061Z,86.10
2022-08-28T14:24:27.767Z,85.70
2022-08-28T14:26:58.714Z,86.00
2022-08-28T14:29:31.723Z,85.60
2022-08-28T14:32:04.267Z,86.30
2022-08-28T14:34:38.431Z,85.20
2022-08-28T14:37:08.893Z,85.60
2022-08-28T14:39:39.226Z,84.40
2022-08-28T14:42:13.243Z,85.30
2022-08-28T14:44:46.466Z,84.50
2022-08-28T14:47:16.762Z,83.80
2022-08-28T14:49:47.326Z,83.80
2022-08-28T14:52:19.493Z,84.50
2022-08-28T14:54:49.739Z,84.60
2022-08-28T14:57:20.059Z,85.40
2022-08-28T14:59:52.957Z,85.00
2022-08-28T15:02:23.464Z,84.00
2022-08-28T15:04:53.817Z,83.60
2022-08-28T15:07:24.164Z,82.60
2022-08-28T15:09:55.238Z,82.00
2022-08-28T15:12:25.863Z,83.10
2022-08-28T15:14:58.841Z,84.50
2022-08-28T15:17:34.010Z,84.10
2022-08-28T15:20:05.324Z,84.20
2022-08-28T15:22:36.548Z,82.70
2022-08-28T15:25:07.508Z,82.70
2022-08-28T15:27:37.793Z,82.00
2022-08-28T15:30:11.966Z,81.60
2022-08-28T15:32:44.793Z,82.80
2022-08-28T15:35:15.623Z,81.20
2022-08-28T15:37:46.046Z,81.80
2022-08-28T15:40:28.887Z,81.60
2022-08-28T15:42:59.524Z,81.40
2022-08-28T15:45:32.729Z,81.20
2022-08-28T15:48:03.059Z,80.70
2022-08-28T15:50:33.511Z,81.70
2022-08-28T15:53:03.882Z,81.20
2022-08-28T15:55:37.000Z,81.70
2022-08-28T15:58:13.827Z,82.30
2022-08-28T16:00:47.537Z,82.00
2022-08-28T16:03:18.149Z,81.40
2022-08-28T16:05:48.453Z,80.40
2022-08-28T16:08:18.755Z,80.30
2022-08-28T16:10:53.039Z,80.10
2022-08-28T16:13:24.289Z,78.90
2022-08-28T16:15:57.320Z,80.00
2022-08-28T16:18:27.697Z,80.10
2022-08-28T16:21:01.540Z,79.10
2022-08-28T16:23:35.762Z,78.90
2022-08-28T16:26:07.823Z,78.30
2022-08-28T16:28:38.945Z,77.40
2022-08-28T16:31:19.166Z,78.50
2022-08-28T16:33:51.604Z,78.90
2022-08-28T16:36:23.705Z,78.40
2022-08-28T16:39:03.546Z,78.70
2022-08-28T16:41:34.798Z,78.00
2022-08-28T16:44:05.375Z,77.70
2022-08-28T16:46:38.415Z,76.90
2022-08-28T16:49:09.229Z,76.90
2022-08-28T16:51:40.199Z,77.10
2022-08-28T16:54:10.830Z,77.50
2022-08-28T16:56:41.279Z,78.20
2022-08-28T16:59:11.684Z,78.00
2022-08-28T17:01:44.894Z,77.60
2022-08-28T17:04:15.341Z,77.80
2022-08-28T17:06:47.429Z,77.80
2022-08-28T17:09:20.879Z,78.10
2022-08-28T17:11:52.390Z,78.20
2022-08-28T17:14:23.318Z,77.50
2022-08-28T17:16:58.733Z,77.50
2022-08-28T17:19:29.081Z,76.90
2022-08-28T17:22:11.984Z,78.10
2022-08-28T17:24:42.528Z,78.10
2022-08-28T17:27:14.636Z,78.30
2022-08-28T17:29:52.919Z,77.80
2022-08-28T17:32:25.931Z,77.90
2022-08-28T17:34:56.358Z,78.40
2022-08-28T17:37:26.699Z,78.70
2022-08-28T17:39:57.071Z,78.90
2022-08-28T17:42:27.616Z,79.30
2022-08-28T17:44:57.920Z,79.50
2022-08-28T17:47:32.134Z,79.30
2022-08-28T17:50:05.938Z,79.00
2022-08-28T17:52:39.854Z,79.10
2022-08-28T17:55:11.218Z,79.50
2022-08-28T17:57:43.164Z,79.60
2022-08-28T18:00:16.342Z,79.20
2022-08-28T18:02:53.820Z,79.50
2022-08-28T18:05:24.635Z,80.20
2022-08-28T18:07:55.423Z,79.90
2022-08-28T18:10:26.202Z,79.80
2022-08-28T18:12:56.893Z,80.20
2022-08-28T18:15:27.211Z,80.00
2022-08-28T18:18:00.607Z,80.10
2022-08-28T18:20:31.145Z,80.00
2022-08-28T18:23:01.835Z,80.00
2022-08-28T18:25:44.909Z,80.20
2022-08-28T18:28:23.308Z,80.20
2022-08-28T18:30:54.787Z,79.90
2022-08-28T18:33:28.061Z,79.80
2022-08-28T18:35:58.526Z,80.20
2022-08-28T18:38:35.152Z,79.90
2022-08-28T18:41:06.230Z,80.70
2022-08-28T18:43:36.826Z,80.60
2022-08-28T18:46:09.398Z,82.20
2022-08-28T18:48:42.857Z,81.20
2022-08-28T18:51:16.522Z,81.40
2022-08-28T18:53:52.527Z,81.70
2022-08-28T18:56:22.884Z,82.00
2022-08-28T18:58:55.077Z,81.50
2022-08-28T19:01:25.859Z,81.40
2022-08-28T19:03:59.834Z,81.40
2022-08-28T19:06:30.332Z,81.50
2022-08-28T19:09:00.869Z,81.80
2022-08-28T19:11:31.643Z,81.80
2022-08-28T19:14:03.668Z,81.40
2022-08-28T19:16:35.480Z,81.90
2022-08-28T19:19:08.942Z,82.40
2022-08-28T19:21:40.751Z,82.40
2022-08-28T19:24:11.416Z,82.50
2022-08-28T19:26:41.968Z,82.40
2022-08-28T19:29:12.948Z,82.70
2022-08-28T19:31:43.954Z,83.00
2022-08-28T19:34:16.948Z,82.20
2022-08-28T19:36:48.166Z,82.50
2022-08-28T19:39:18.738Z,81.80
2022-08-28T19:41:49.672Z,82.40
2022-08-28T19:44:20.291Z,81.90
2022-08-28T19:46:50.840Z,82.50
2022-08-28T19:49:24.072Z,81.90
2022-08-28T19:51:54.475Z,82.00
2022-08-28T19:54:24.930Z,82.90
2022-08-28T19:56:55.687Z,82.60
2022-08-28T19:59:27.224Z,82.80
2022-08-28T20:01:57.989Z,83.00
2022-08-28T20:04:31.018Z,83.30
2022-08-28T20:07:02.346Z,84.10
2022-08-28T20:09:34.884Z,83.70
2022-08-28T20:12:05.594Z,83.70
2022-08-28T20:14:39.097Z,84.10
2022-08-28T20:17:09.497Z,84.20
2022-08-28T20:19:42.733Z,84.80
2022-08-28T20:22:13.156Z,84.90
2022-08-28T20:24:43.686Z,85.70
2022-08-28T20:27:14.145Z,85.50
2022-08-28T20:29:44.612Z,85.40
2022-08-28T20:32:15.262Z,85.60
2022-08-28T20:34:48.243Z,86.30
2022-08-28T20:37:19.308Z,86.40
2022-08-28T20:39:49.631Z,86.70
2022-08-28T20:42:20.357Z,86.60
2022-08-28T20:44:50.823Z,87.00
2022-08-28T20:47:22.305Z,87.00
2022-08-28T20:49:56.531Z,86.80
2022-08-28T20:52:27.363Z,87.10
2022-08-28T20:54:58.326Z,87.30
2022-08-28T20:57:29.010Z,87.70
2022-08-28T21:00:03.462Z,87.70
2022-08-28T21:02:36.036Z,87.70
2022-08-28T21:05:10.024Z,87.90
2022-08-28T21:07:40.533Z,88.10
2022-08-28T21:10:11.988Z,88.50
2022-08-28T21:12:43.706Z,88.50
2022-08-28T21:15:15.924Z,88.80
2022-08-28T21:17:46.220Z,89.10
2022-08-28T21:20:20.271Z,89.50
2022-08-28T21:22:51.469Z,89.90
2022-08-28T21:25:24.754Z,90.00
2022-08-28T21:27:55.659Z,90.10
2022-08-28T21:30:29.694Z,90.20
2022-08-28T21:33:00.619Z,90.30
2022-08-28T21:35:33.739Z,90.30
2022-08-28T21:38:04.169Z,90.30
2022-08-28T21:40:35.487Z,90.40
2022-08-28T21:43:06.112Z,90.60
2022-08-28T21:45:36.997Z,90.80
2022-08-28T21:48:09.930Z,91.00
2022-08-28T21:50:45.412Z,91.10
2022-08-28T21:53:16.621Z,91.20
2022-08-28T21:55:55.665Z,91.20
2022-08-28T21:58:26.205Z,91.30
2022-08-28T22:00:58.142Z,91.40
2022-08-28T22:03:30.865Z,91.50
2022-08-28T22:06:04.070Z,91.60
2022-08-28T22:08:35.206Z,91.80
2022-08-28T22:11:05.595Z,91.80
2022-08-28T22:13:36.158Z,91.90
2022-08-28T22:16:07.809Z,92.10
2022-08-28T22:18:38.331Z,92.10
2022-08-28T22:21:27.885Z,92.30
2022-08-28T22:23:58.239Z,92.30
2022-08-28T22:26:28.882Z,92.40
2022-08-28T22:29:00.297Z,92.40
2022-08-28T22:31:30.724Z,92.40
2022-08-28T22:34:01.906Z,92.60
2022-08-28T22:36:34.903Z,92.60
2022-08-28T22:39:05.275Z,92.60
2022-08-28T22:41:37.715Z,92.70
2022-08-28T22:44:08.469Z,92.80
2022-08-28T22:46:39.229Z,92.80
2022-08-28T22:49:10.317Z,92.90
2022-08-28T22:51:43.300Z,93.00
2022-08-28T22:54:13.800Z,92.90
2022-08-28T22:56:44.162Z,92.90
2022-08-28T22:59:14.683Z,93.10
2022-08-28T23:01:45.458Z,93.10
2022-08-28T23:04:16.159Z,93.30
2022-08-28T23:06:49.321Z,93.30
2022-08-28T23:09:20.478Z,93.40
2022-08-28T23:11:51.015Z,93.40
2022-08-28T23:14:21.492Z,93.40
2022-08-28T23:16:55.169Z,93.50
2022-08-28T23:19:26.212Z,93.50
2022-08-28T23:22:01.949Z,93.60
2022-08-28T23:24:32.407Z,93.50
2022-08-28T23:27:32.072Z,93.70
2022-08-28T23:29:57.532Z,93.80
2022-08-28T23:32:27.967Z,93.80
2022-08-28T23:34:58.791Z,93.80
2022-08-28T23:37:32.930Z,94.00
2022-08-28T23:40:03.458Z,94.00
2022-08-28T23:42:33.785Z,94.00
2022-08-28T23:45:05.231Z,94.00
2022-08-28T23:47:40.320Z,94.00
2022-08-28T23:50:15.042Z,94.20
2022-08-28T23:52:48.378Z,94.10
2022-08-28T23:55:20.558Z,94.40
2022-08-28T23:57:52.147Z,94.30
